createdAt,value
2023-04-18T00:02:17.933Z,67.98
2023-04-18T00:04:50.590Z,68.25
2023-04-18T00:07:19.790Z,68.61
2023-04-18T00:09:47.556Z,68.33
2023-04-18T00:12:15.731Z,68.37
2023-04-18T00:14:44.041Z,68.83
2023-04-18T00:17:13.539Z,68.77
2023-04-18T00:19:43.541Z,68.16
2023-04-18T00:22:13.217Z,67.76
2023-04-18T00:24:41.253Z,67.32
2023-04-18T00:27:09.229Z,67.46
2023-04-18T00:29:37.009Z,67.77
2023-04-18T00:32:04.954Z,67.77
2023-04-18T00:34:33.360Z,67.93
2023-04-18T00:37:01.227Z,67.33
2023-04-18T00:39:32.164Z,67.36
2023-04-18T00:42:01.768Z,67.10
2023-04-18T00:44:40.467Z,67.38
2023-04-18T00:47:08.444Z,67.29
2023-04-18T00:49:36.464Z,67.74
2023-04-18T00:52:04.470Z,68.18
2023-04-18T00:54:32.728Z,68.25
2023-04-18T00:57:01.098Z,68.71
2023-04-18T00:59:28.979Z,69.16
2023-04-18T01:01:57.143Z,69.11
2023-04-18T01:04:25.341Z,69.58
2023-04-18T01:06:53.344Z,69.35
2023-04-18T01:09:25.654Z,69.48
2023-04-18T01:11:54.094Z,69.54
2023-04-18T01:14:22.231Z,69.66
2023-04-18T01:16:50.044Z,69.25
2023-04-18T01:19:20.052Z,68.61
2023-04-18T01:21:48.152Z,68.51
2023-04-18T01:24:17.804Z,68.24
2023-04-18T01:26:50.139Z,68.05
2023-04-18T01:29:18.042Z,67.97
2023-04-18T01:31:46.222Z,68.30
2023-04-18T01:34:18.167Z,68.98
2023-04-18T01:36:46.842Z,69.11
2023-04-18T01:39:15.159Z,69.07
2023-04-18T01:41:43.466Z,69.30
2023-04-18T01:44:12.014Z,69.39
2023-04-18T01:46:40.978Z,69.72
2023-04-18T01:49:10.027Z,69.79
2023-04-18T01:51:42.250Z,69.76
2023-04-18T01:54:10.318Z,69.65
2023-04-18T01:56:38.315Z,70.13
2023-04-18T01:59:06.752Z,70.33
2023-04-18T02:01:34.886Z,70.68
2023-04-18T02:04:02.929Z,70.99
2023-04-18T02:06:31.084Z,71.45
2023-04-18T02:09:00.939Z,71.64
2023-04-18T02:11:28.878Z,72.11
2023-04-18T02:13:56.979Z,72.28
2023-04-18T02:16:26.246Z,72.26
2023-04-18T02:18:54.228Z,72.16
2023-04-18T02:21:22.804Z,72.37
2023-04-18T02:23:51.460Z,72.72
2023-04-18T02:26:23.004Z,72.67
2023-04-18T02:28:51.280Z,72.52
2023-04-18T02:31:19.621Z,72.56
2023-04-18T02:33:48.575Z,72.57
2023-04-18T02:36:17.212Z,72.25
2023-04-18T02:38:46.093Z,72.23
2023-04-18T02:41:17.647Z,72.15
2023-04-18T02:43:45.855Z,71.44
2023-04-18T02:46:16.443Z,71.03
2023-04-18T02:48:47.453Z,70.59
2023-04-18T02:51:16.769Z,70.77
2023-04-18T02:53:44.861Z,70.65
2023-04-18T02:56:17.407Z,71.11
2023-04-18T02:59:04.053Z,71.60
2023-04-18T03:01:48.701Z,71.53
2023-04-18T03:04:22.131Z,71.36
2023-04-18T03:07:09.724Z,71.42
2023-04-18T03:09:39.652Z,71.89
2023-04-18T03:12:18.788Z,71.68
2023-04-18T03:14:47.485Z,71.73
2023-04-18T03:17:16.297Z,71.89
2023-04-18T03:19:48.838Z,71.82
2023-04-18T03:22:19.672Z,72.11
2023-04-18T03:24:56.779Z,72.33
2023-04-18T03:27:37.943Z,72.70
2023-04-18T03:30:06.755Z,73.02
2023-04-18T03:32:36.632Z,72.91
2023-04-18T03:35:05.242Z,72.85
2023-04-18T03:37:33.690Z,73.20
2023-04-18T03:40:04.007Z,73.16
2023-04-18T03:42:32.097Z,73.03
2023-04-18T03:44:59.940Z,73.27
2023-04-18T03:47:30.674Z,73.54
2023-04-18T03:49:59.948Z,73.85
2023-04-18T03:52:29.849Z,73.60
2023-04-18T03:54:58.149Z,73.70
2023-04-18T03:57:31.845Z,73.91
2023-04-18T04:00:01.224Z,73.83
2023-04-18T04:02:32.561Z,73.98
2023-04-18T04:05:00.589Z,74.46
2023-04-18T04:07:28.683Z,74.69
2023-04-18T04:09:56.537Z,74.72
2023-04-18T04:12:25.465Z,74.77
2023-04-18T04:14:53.553Z,74.73
2023-04-18T04:17:22.101Z,74.80
2023-04-18T04:19:51.385Z,75.00
2023-04-18T04:22:21.188Z,75.11
2023-04-18T04:24:49.620Z,75.18
2023-04-18T04:27:25.112Z,75.01
2023-04-18T04:29:54.128Z,75.13
2023-04-18T04:32:22.458Z,75.52
2023-04-18T04:34:50.830Z,75.43
2023-04-18T04:37:20.046Z,75.61
2023-04-18T04:40:06.778Z,75.62
2023-04-18T04:42:49.199Z,76.09
2023-04-18T04:45:24.232Z,76.11
2023-04-18T04:47:53.292Z,76.30
2023-04-18T04:50:21.999Z,76.41
2023-04-18T04:52:49.953Z,77.02
2023-04-18T04:55:19.119Z,76.60
2023-04-18T04:57:47.865Z,76.70
2023-04-18T05:00:34.204Z,76.51
2023-04-18T05:03:02.645Z,76.55
2023-04-18T05:05:31.811Z,76.40
2023-04-18T05:08:02.483Z,76.23
2023-04-18T05:10:31.073Z,76.19
2023-04-18T05:12:58.805Z,76.53
2023-04-18T05:15:29.763Z,76.67
2023-04-18T05:17:58.219Z,76.97
2023-04-18T05:20:26.185Z,76.72
2023-04-18T05:22:54.581Z,76.56
2023-04-18T05:25:22.347Z,76.77
2023-04-18T05:27:52.216Z,76.87
2023-04-18T05:30:20.622Z,77.09
2023-04-18T05:32:48.821Z,76.95
2023-04-18T05:35:16.802Z,77.09
2023-04-18T05:37:44.883Z,77.10
2023-04-18T05:40:13.418Z,76.91
2023-04-18T05:42:41.279Z,76.79
2023-04-18T05:45:09.775Z,77.33
2023-04-18T05:47:37.807Z,77.17
2023-04-18T05:50:06.501Z,76.65
2023-04-18T05:52:34.681Z,76.34
2023-04-18T05:55:02.907Z,76.27
2023-04-18T05:57:31.271Z,75.96
2023-04-18T06:00:00.043Z,75.57
2023-04-18T06:02:33.356Z,75.19
2023-04-18T06:05:04.637Z,74.78
2023-04-18T06:07:36.307Z,74.60
2023-04-18T06:10:05.800Z,74.74
2023-04-18T06:12:33.999Z,74.36
2023-04-18T06:15:02.513Z,74.19
2023-04-18T06:17:30.844Z,74.54
2023-04-18T06:20:02.234Z,74.60
2023-04-18T06:22:30.022Z,74.79
2023-04-18T06:24:58.572Z,74.65
2023-04-18T06:27:31.395Z,74.55
2023-04-18T06:29:59.893Z,73.97
2023-04-18T06:32:31.247Z,74.10
2023-04-18T06:34:59.252Z,74.01
2023-04-18T06:37:27.436Z,73.98
2023-04-18T06:39:55.381Z,73.56
2023-04-18T06:42:23.271Z,73.62
2023-04-18T06:44:51.764Z,73.25
2023-04-18T06:47:19.721Z,72.74
2023-04-18T06:49:48.297Z,72.46
2023-04-18T06:52:16.139Z,72.50
2023-04-18T06:54:43.986Z,72.41
2023-04-18T06:57:12.213Z,72.02
2023-04-18T06:59:41.495Z,71.40
2023-04-18T07:02:09.768Z,70.43
2023-04-18T07:04:37.745Z,69.64
2023-04-18T07:07:05.801Z,69.81
2023-04-18T07:09:33.864Z,69.22
2023-04-18T07:12:04.381Z,68.47
2023-04-18T07:14:34.103Z,68.08
2023-04-18T07:17:02.600Z,68.31
2023-04-18T07:19:30.671Z,67.91
2023-04-18T07:21:58.493Z,68.92
2023-04-18T07:24:26.533Z,68.16
2023-04-18T07:26:55.256Z,67.82
2023-04-18T07:29:23.165Z,67.45
2023-04-18T07:31:51.176Z,67.60
2023-04-18T07:34:19.197Z,67.58
2023-04-18T07:36:47.059Z,67.24
2023-04-18T07:39:15.362Z,65.44
2023-04-18T07:41:43.338Z,65.08
2023-04-18T07:44:11.633Z,64.75
2023-04-18T07:46:39.595Z,64.08
2023-04-18T07:49:07.883Z,64.61
2023-04-18T07:51:36.205Z,64.52
2023-04-18T07:54:04.521Z,64.38
2023-04-18T07:56:36.665Z,64.67
2023-04-18T07:59:13.936Z,62.09
2023-04-18T08:01:42.241Z,62.85
2023-04-18T08:04:10.239Z,62.06
2023-04-18T08:06:38.170Z,61.94
2023-04-18T08:09:06.342Z,62.40
2023-04-18T08:11:35.276Z,62.89
2023-04-18T08:14:03.418Z,62.40
2023-04-18T08:16:32.651Z,62.27
2023-04-18T08:19:00.819Z,63.26
2023-04-18T08:21:28.793Z,64.54
2023-04-18T08:23:57.163Z,63.83
2023-04-18T08:26:25.254Z,63.21
2023-04-18T08:28:53.098Z,61.29
2023-04-18T08:31:21.407Z,61.46
2023-04-18T08:33:49.570Z,61.23
2023-04-18T08:36:17.588Z,60.60
2023-04-18T08:38:46.880Z,58.52
2023-04-18T08:41:20.924Z,56.91
2023-04-18T08:43:49.578Z,56.51
2023-04-18T08:46:19.265Z,57.21
2023-04-18T08:48:51.716Z,56.98
2023-04-18T08:51:19.734Z,58.63
2023-04-18T08:53:48.717Z,59.58
2023-04-18T08:56:17.143Z,61.47
2023-04-18T08:58:45.465Z,60.32
2023-04-18T09:01:14.140Z,60.45
2023-04-18T09:03:43.437Z,61.70
2023-04-18T09:06:18.799Z,61.58
2023-04-18T09:09:06.586Z,61.98
2023-04-18T09:11:34.729Z,60.83
2023-04-18T09:14:02.792Z,60.73
2023-04-18T09:16:50.691Z,60.14
2023-04-18T09:19:18.982Z,60.40
2023-04-18T09:21:47.385Z,60.65
2023-04-18T09:24:22.904Z,60.38
2023-04-18T09:26:54.007Z,60.10
2023-04-18T09:29:24.477Z,60.86
2023-04-18T09:31:57.767Z,59.14
2023-04-18T09:34:26.715Z,58.89
2023-04-18T09:37:11.945Z,58.67
2023-04-18T09:39:42.458Z,59.28
2023-04-18T09:42:11.449Z,59.33
2023-04-18T09:44:58.181Z,57.63
2023-04-18T09:47:27.943Z,57.33
2023-04-18T09:49:56.039Z,55.71
2023-04-18T09:52:26.197Z,54.91
2023-04-18T09:55:01.567Z,52.57
2023-04-18T09:57:31.632Z,52.81
2023-04-18T10:00:14.348Z,53.57
2023-04-18T10:03:06.246Z,53.82
2023-04-18T10:05:40.682Z,54.30
2023-04-18T10:08:10.993Z,54.53
2023-04-18T10:10:39.343Z,55.13
2023-04-18T10:13:11.199Z,55.20
2023-04-18T10:15:41.712Z,55.40
2023-04-18T10:18:14.752Z,54.25
2023-04-18T10:20:44.830Z,54.87
2023-04-18T10:23:36.999Z,55.00
2023-04-18T10:26:09.609Z,55.62
2023-04-18T10:29:04.979Z,55.19
2023-04-18T10:31:41.473Z,54.99
2023-04-18T10:34:10.897Z,55.75
2023-04-18T10:37:05.547Z,55.96
2023-04-18T10:39:49.895Z,55.13
2023-04-18T10:42:18.408Z,54.55
2023-04-18T10:45:19.531Z,54.88
2023-04-18T10:47:48.272Z,55.25
2023-04-18T10:50:17.090Z,54.97
2023-04-18T10:52:45.102Z,54.37
2023-04-18T10:55:26.324Z,55.15
2023-04-18T10:57:58.664Z,53.85
2023-04-18T11:00:27.469Z,54.29
2023-04-18T11:02:57.821Z,53.42
2023-04-18T11:05:29.281Z,52.82
2023-04-18T11:07:58.040Z,52.34
2023-04-18T11:10:28.035Z,50.96
2023-04-18T11:12:58.794Z,52.81
2023-04-18T11:15:28.531Z,50.48
2023-04-18T11:18:05.675Z,48.36
2023-04-18T11:20:46.800Z,48.53
2023-04-18T11:23:25.128Z,48.20
2023-04-18T11:25:56.756Z,48.04
2023-04-18T11:28:27.238Z,47.61
2023-04-18T11:31:04.388Z,48.76
2023-04-18T11:33:32.627Z,51.14
2023-04-18T11:36:00.850Z,51.15
2023-04-18T11:38:31.302Z,50.77
2023-04-18T11:40:59.252Z,51.11
2023-04-18T11:43:27.306Z,50.79
2023-04-18T11:46:00.053Z,49.98
2023-04-18T11:48:38.580Z,48.61
2023-04-18T11:51:29.501Z,49.52
2023-04-18T11:53:57.500Z,45.42
2023-04-18T11:56:25.446Z,46.21
2023-04-18T11:58:53.637Z,48.55
2023-04-18T12:01:27.098Z,50.29
2023-04-18T12:04:04.065Z,51.22
2023-04-18T12:06:52.899Z,54.61
2023-04-18T12:09:24.494Z,53.05
2023-04-18T12:12:04.301Z,54.86
2023-04-18T12:14:32.189Z,55.08
2023-04-18T12:17:03.069Z,53.23
2023-04-18T12:19:30.895Z,51.65
2023-04-18T12:22:01.018Z,51.30
2023-04-18T12:24:29.585Z,51.87
2023-04-18T12:26:58.179Z,51.69
2023-04-18T12:29:27.589Z,53.28
2023-04-18T12:31:55.789Z,52.92
2023-04-18T12:34:23.939Z,54.03
2023-04-18T12:36:52.509Z,55.37
2023-04-18T12:39:20.333Z,55.73
2023-04-18T12:41:49.716Z,56.07
2023-04-18T12:44:17.800Z,54.00
2023-04-18T12:46:45.698Z,52.97
2023-04-18T12:49:14.957Z,51.01
2023-04-18T12:51:44.039Z,49.84
2023-04-18T12:54:12.120Z,52.51
2023-04-18T12:56:40.541Z,52.53
2023-04-18T12:59:08.260Z,52.79
2023-04-18T13:01:36.581Z,54.54
2023-04-18T13:04:12.288Z,54.63
2023-04-18T13:06:40.989Z,53.58
2023-04-18T13:09:09.465Z,53.07
2023-04-18T13:11:37.257Z,51.58
2023-04-18T13:14:05.159Z,50.63
2023-04-18T13:16:33.211Z,51.10
2023-04-18T13:19:01.141Z,51.07
2023-04-18T13:21:29.356Z,53.98
2023-04-18T13:23:57.527Z,55.09
2023-04-18T13:26:26.005Z,56.07
2023-04-18T13:28:54.108Z,53.40
2023-04-18T13:31:22.096Z,53.20
2023-04-18T13:33:50.980Z,54.20
2023-04-18T13:36:18.885Z,55.00
2023-04-18T13:38:47.518Z,56.16
2023-04-18T13:41:15.528Z,57.47
2023-04-18T13:43:43.376Z,57.32
2023-04-18T13:46:11.916Z,57.35
2023-04-18T13:48:39.773Z,55.95
2023-04-18T13:51:07.791Z,56.25
2023-04-18T13:53:35.833Z,56.91
2023-04-18T13:56:03.674Z,57.48
2023-04-18T13:58:34.328Z,57.07
2023-04-18T14:01:02.467Z,58.77
2023-04-18T14:03:31.424Z,56.90
2023-04-18T14:05:59.468Z,55.48
2023-04-18T14:08:27.390Z,55.58
2023-04-18T14:10:55.227Z,54.81
2023-04-18T14:13:23.030Z,55.40
2023-04-18T14:15:52.434Z,55.96
2023-04-18T14:18:21.807Z,57.35
2023-04-18T14:20:49.871Z,57.73
2023-04-18T14:23:19.080Z,56.54
2023-04-18T14:25:47.130Z,56.70
2023-04-18T14:28:15.768Z,56.12
2023-04-18T14:30:44.334Z,54.09
2023-04-18T14:33:12.745Z,53.59
2023-04-18T14:35:40.548Z,53.30
2023-04-18T14:38:08.448Z,52.28
2023-04-18T14:40:36.423Z,49.96
2023-04-18T14:43:07.073Z,51.00
2023-04-18T14:45:35.641Z,51.12
2023-04-18T14:48:03.622Z,50.85
2023-04-18T14:50:32.252Z,50.67
2023-04-18T14:53:00.464Z,51.27
2023-04-18T14:55:28.686Z,52.11
2023-04-18T14:57:56.456Z,51.57
2023-04-18T15:00:24.379Z,52.33
2023-04-18T15:02:52.412Z,51.71
2023-04-18T15:05:23.854Z,53.15
2023-04-18T15:07:56.191Z,54.79
2023-04-18T15:10:24.177Z,56.18
2023-04-18T15:12:52.459Z,57.18
2023-04-18T15:15:21.065Z,57.84
2023-04-18T15:17:48.851Z,58.32
2023-04-18T15:20:17.921Z,58.13
2023-04-18T15:22:45.951Z,58.80
2023-04-18T15:25:16.561Z,59.38
2023-04-18T15:27:44.552Z,58.97
2023-04-18T15:30:12.967Z,59.37
2023-04-18T15:32:42.244Z,59.72
2023-04-18T15:35:12.163Z,59.81
2023-04-18T15:37:40.310Z,59.99
2023-04-18T15:40:10.693Z,59.91
2023-04-18T15:42:39.175Z,59.86
2023-04-18T15:45:08.210Z,60.74
2023-04-18T15:47:36.296Z,60.40
2023-04-18T15:50:04.669Z,60.32
2023-04-18T15:52:34.877Z,59.48
2023-04-18T15:55:03.046Z,58.65
2023-04-18T15:57:32.160Z,59.46
2023-04-18T16:00:02.772Z,59.60
2023-04-18T16:02:36.174Z,60.58
2023-04-18T16:05:05.068Z,60.26
2023-04-18T16:07:32.872Z,60.67
2023-04-18T16:10:03.006Z,60.22
2023-04-18T16:12:31.307Z,61.17
2023-04-18T16:14:59.303Z,59.91
2023-04-18T16:17:27.137Z,60.73
2023-04-18T16:19:55.079Z,59.11
2023-04-18T16:22:23.002Z,59.16
2023-04-18T16:24:50.909Z,60.09
2023-04-18T16:27:19.002Z,59.68
2023-04-18T16:29:47.268Z,60.06
2023-04-18T16:32:15.272Z,60.39
2023-04-18T16:34:43.120Z,59.56
2023-04-18T16:37:11.371Z,59.62
2023-04-18T16:39:39.114Z,60.76
2023-04-18T16:42:07.097Z,59.62
2023-04-18T16:44:34.926Z,60.23
2023-04-18T16:47:05.054Z,60.44
2023-04-18T16:49:33.140Z,60.15
2023-04-18T16:52:02.309Z,60.43
2023-04-18T16:54:31.171Z,60.80
2023-04-18T16:56:58.942Z,60.60
2023-04-18T16:59:26.792Z,60.62
2023-04-18T17:01:55.036Z,61.08
2023-04-18T17:04:23.484Z,61.01
2023-04-18T17:06:52.182Z,60.88
2023-04-18T17:09:20.253Z,60.32
2023-04-18T17:11:48.447Z,60.48
2023-04-18T17:14:17.615Z,59.93
2023-04-18T17:16:45.637Z,59.37
2023-04-18T17:19:14.206Z,59.06
2023-04-18T17:21:43.525Z,59.08
2023-04-18T17:24:11.236Z,58.50
2023-04-18T17:26:40.100Z,58.77
2023-04-18T17:29:11.324Z,58.38
2023-04-18T17:31:39.160Z,58.58
2023-04-18T17:34:07.106Z,58.98
2023-04-18T17:36:35.060Z,58.75
2023-04-18T17:39:06.595Z,58.52
2023-04-18T17:41:40.499Z,59.23
2023-04-18T17:44:10.716Z,59.34
2023-04-18T17:46:38.862Z,59.52
2023-04-18T17:49:06.713Z,60.11
2023-04-18T17:51:37.336Z,60.48
2023-04-18T17:54:05.719Z,60.28
2023-04-18T17:56:33.843Z,59.99
2023-04-18T17:59:04.752Z,60.58
2023-04-18T18:01:34.908Z,60.67
2023-04-18T18:04:05.924Z,60.38
2023-04-18T18:06:33.729Z,60.02
2023-04-18T18:09:04.449Z,60.60
2023-04-18T18:11:32.453Z,60.91
2023-04-18T18:14:00.960Z,61.12
2023-04-18T18:16:28.752Z,61.30
2023-04-18T18:18:56.596Z,61.36
2023-04-18T18:21:26.878Z,61.72
2023-04-18T18:23:54.980Z,62.06
2023-04-18T18:26:23.039Z,62.31
2023-04-18T18:28:50.835Z,62.27
2023-04-18T18:31:23.084Z,62.25
2023-04-18T18:33:51.468Z,62.60
2023-04-18T18:36:19.243Z,62.55
2023-04-18T18:38:47.321Z,62.29
2023-04-18T18:41:16.315Z,62.91
2023-04-18T18:43:44.061Z,63.21
2023-04-18T18:46:11.955Z,63.93
2023-04-18T18:48:39.743Z,64.80
2023-04-18T18:51:07.816Z,64.84
2023-04-18T18:53:36.764Z,65.76
2023-04-18T18:56:05.833Z,66.36
2023-04-18T18:58:33.859Z,66.41
2023-04-18T19:01:03.508Z,66.53
2023-04-18T19:03:34.800Z,67.23
2023-04-18T19:06:04.283Z,67.60
2023-04-18T19:08:32.176Z,67.70
2023-04-18T19:10:59.993Z,68.19
2023-04-18T19:13:27.875Z,67.90
2023-04-18T19:15:55.749Z,68.07
2023-04-18T19:18:24.295Z,68.11
2023-04-18T19:20:52.081Z,68.28
2023-04-18T19:23:20.116Z,69.00
2023-04-18T19:25:48.154Z,68.98
2023-04-18T19:28:18.210Z,69.42
2023-04-18T19:30:46.612Z,69.01
2023-04-18T19:33:14.428Z,69.18
2023-04-18T19:35:43.288Z,69.10
2023-04-18T19:38:11.203Z,69.32
2023-04-18T19:40:39.247Z,69.34
2023-04-18T19:43:07.246Z,69.70
2023-04-18T19:45:35.335Z,69.70
2023-04-18T19:48:04.032Z,69.94
2023-04-18T19:50:32.923Z,70.05
2023-04-18T19:53:00.994Z,69.97
2023-04-18T19:55:38.804Z,70.40
2023-04-18T19:58:06.970Z,70.27
2023-04-18T20:00:34.933Z,70.56
2023-04-18T20:03:03.241Z,70.80
2023-04-18T20:05:31.431Z,70.67
2023-04-18T20:07:59.355Z,70.70
2023-04-18T20:10:27.843Z,70.78
2023-04-18T20:12:55.689Z,70.75
2023-04-18T20:15:23.398Z,71.11
2023-04-18T20:17:51.251Z,71.29
2023-04-18T20:20:20.611Z,71.49
2023-04-18T20:22:49.378Z,71.19
2023-04-18T20:25:17.523Z,71.31
2023-04-18T20:27:45.397Z,71.24
2023-04-18T20:30:13.478Z,71.40
2023-04-18T20:32:41.801Z,71.49
2023-04-18T20:35:09.928Z,71.86
2023-04-18T20:37:38.019Z,71.70
2023-04-18T20:40:11.433Z,72.04
2023-04-18T20:42:39.261Z,72.30
2023-04-18T20:45:11.180Z,72.22
2023-04-18T20:47:42.645Z,72.26
2023-04-18T20:50:11.424Z,72.23
2023-04-18T20:52:42.854Z,72.38
2023-04-18T20:55:11.322Z,72.56
2023-04-18T20:57:39.099Z,72.47
2023-04-18T21:00:09.419Z,72.76
2023-04-18T21:02:38.780Z,72.81
2023-04-18T21:05:07.902Z,72.72
2023-04-18T21:07:37.007Z,72.80
2023-04-18T21:10:05.450Z,72.86
2023-04-18T21:12:33.616Z,72.92
2023-04-18T21:15:02.042Z,72.69
2023-04-18T21:17:29.909Z,73.12
2023-04-18T21:19:57.797Z,73.17
2023-04-18T21:22:25.772Z,72.97
2023-04-18T21:24:53.700Z,73.06
2023-04-18T21:27:23.882Z,72.90
2023-04-18T21:29:51.835Z,72.86
2023-04-18T21:32:19.761Z,73.13
2023-04-18T21:34:47.517Z,73.15
2023-04-18T21:37:15.431Z,73.16
2023-04-18T21:39:43.217Z,73.32
2023-04-18T21:42:11.563Z,73.46
2023-04-18T21:44:39.401Z,73.70
2023-04-18T21:47:07.365Z,73.55
2023-04-18T21:49:35.193Z,73.29
2023-04-18T21:52:03.130Z,73.36
2023-04-18T21:54:31.450Z,73.12
2023-04-18T21:56:59.198Z,73.17
2023-04-18T21:59:26.993Z,73.10
2023-04-18T22:01:55.125Z,73.57
2023-04-18T22:04:26.539Z,73.49
2023-04-18T22:06:55.120Z,73.55
2023-04-18T22:09:23.305Z,73.38
2023-04-18T22:11:57.045Z,73.52
2023-04-18T22:14:25.365Z,73.48
2023-04-18T22:16:54.232Z,73.21
2023-04-18T22:19:22.333Z,73.51
2023-04-18T22:21:50.484Z,73.62
2023-04-18T22:24:19.801Z,73.43
2023-04-18T22:26:47.762Z,73.10
2023-04-18T22:29:15.623Z,73.22
2023-04-18T22:31:44.540Z,73.27
2023-04-18T22:34:12.518Z,73.76
2023-04-18T22:36:40.989Z,73.56
2023-04-18T22:39:08.894Z,73.50
2023-04-18T22:41:36.872Z,73.43
2023-04-18T22:44:05.087Z,73.17
2023-04-18T22:46:33.267Z,73.12
2023-04-18T22:49:01.251Z,73.39
2023-04-18T22:51:29.187Z,73.39
2023-04-18T22:53:57.373Z,73.16
2023-04-18T22:56:25.287Z,73.00
2023-04-18T22:58:53.116Z,72.65
2023-04-18T23:01:20.961Z,72.65
2023-04-18T23:03:49.098Z,72.69
2023-04-18T23:06:17.442Z,72.56
2023-04-18T23:08:45.149Z,72.32
2023-04-18T23:11:13.680Z,71.90
2023-04-18T23:13:41.477Z,71.84
2023-04-18T23:16:09.389Z,71.90
2023-04-18T23:18:37.383Z,71.98
2023-04-18T23:21:05.453Z,71.78
2023-04-18T23:23:33.616Z,71.50
2023-04-18T23:26:01.617Z,71.32
2023-04-18T23:28:29.504Z,71.63
2023-04-18T23:30:57.372Z,71.43
2023-04-18T23:33:25.225Z,71.46
2023-04-18T23:35:52.914Z,71.28
2023-04-18T23:38:20.736Z,70.85
2023-04-18T23:40:48.539Z,70.96
2023-04-18T23:43:16.307Z,70.92
2023-04-18T23:45:44.000Z,70.88
2023-04-18T23:48:12.638Z,70.82
2023-04-18T23:50:48.131Z,70.91
2023-04-18T23:53:19.736Z,70.79
2023-04-18T23:55:50.602Z,70.75
2023-04-18T23:58:18.778Z,70.87
